createdAt,value
2023-04-24T00:00:46.289Z,96457.41
2023-04-24T00:03:16.019Z,96451.66
2023-04-24T00:05:44.936Z,96460.25
2023-04-24T00:08:14.199Z,96463.09
2023-04-24T00:10:42.606Z,96456.97
2023-04-24T00:13:11.973Z,96458.66
2023-04-24T00:15:40.399Z,96457.66
2023-04-24T00:18:09.191Z,96456.84
2023-04-24T00:20:40.032Z,96449.16
2023-04-24T00:23:08.707Z,96443.72
2023-04-24T00:25:37.237Z,96452.66
2023-04-24T00:28:06.147Z,96445.97
2023-04-24T00:30:34.554Z,96449.28
2023-04-24T00:33:03.007Z,96447.56
2023-04-24T00:35:32.030Z,96442.81
2023-04-24T00:38:02.049Z,96444.75
2023-04-24T00:40:31.440Z,96438.44
2023-04-24T00:42:59.772Z,96438.75
2023-04-24T00:45:27.932Z,96443.88
2023-04-24T00:47:56.879Z,96447.81
2023-04-24T00:50:26.594Z,96453.34
2023-04-24T00:52:55.094Z,96450.88
2023-04-24T00:55:25.689Z,96463.22
2023-04-24T00:57:54.222Z,96464.69
2023-04-24T01:00:23.495Z,96466.94
2023-04-24T01:02:54.825Z,96457.78
2023-04-24T01:05:23.217Z,96453.94
2023-04-24T01:07:52.018Z,96455.50
2023-04-24T01:10:22.160Z,96450.09
2023-04-24T01:12:53.147Z,96460.03
2023-04-24T01:15:21.772Z,96460.28
2023-04-24T01:17:51.573Z,96460.84
2023-04-24T01:20:20.503Z,96452.22
2023-04-24T01:22:50.901Z,96453.69
2023-04-24T01:25:19.352Z,96449.50
2023-04-24T01:27:47.824Z,96446.56
2023-04-24T01:30:17.280Z,96446.56
2023-04-24T01:32:46.997Z,96448.03
2023-04-24T01:35:15.635Z,96443.75
2023-04-24T01:37:44.649Z,96442.50
2023-04-24T01:40:14.849Z,96440.34
2023-04-24T01:42:44.572Z,96441.03
2023-04-24T01:45:13.824Z,96428.94
2023-04-24T01:47:42.095Z,96441.94
2023-04-24T01:50:12.180Z,96440.78
2023-04-24T01:52:40.442Z,96439.53
2023-04-24T01:55:09.857Z,96440.22
2023-04-24T01:57:39.945Z,96442.09
2023-04-24T02:00:09.568Z,96434.75
2023-04-24T02:02:38.263Z,96444.94
2023-04-24T02:05:09.807Z,96442.09
2023-04-24T02:07:38.276Z,96439.38
2023-04-24T02:10:07.672Z,96441.31
2023-04-24T02:12:36.813Z,96447.66
2023-04-24T02:15:07.671Z,96443.31
2023-04-24T02:17:36.643Z,96443.00
2023-04-24T02:20:05.800Z,96421.81
2023-04-24T02:22:34.178Z,96435.75
2023-04-24T02:25:03.259Z,96436.25
2023-04-24T02:27:31.355Z,96434.59
2023-04-24T02:29:59.867Z,96437.72
2023-04-24T02:32:29.878Z,96436.31
2023-04-24T02:34:57.999Z,96431.59
2023-04-24T02:37:26.314Z,96422.84
2023-04-24T02:39:55.011Z,96432.66
2023-04-24T02:42:23.370Z,96426.63
2023-04-24T02:44:52.414Z,96432.50
2023-04-24T02:47:21.356Z,96426.88
2023-04-24T02:49:50.799Z,96430.47
2023-04-24T02:52:19.344Z,96428.09
2023-04-24T02:54:48.240Z,96414.53
2023-04-24T02:57:16.817Z,96411.34
2023-04-24T02:59:45.504Z,96407.47
2023-04-24T03:02:14.175Z,96419.16
2023-04-24T03:04:44.124Z,96414.53
2023-04-24T03:07:15.509Z,96405.91
2023-04-24T03:09:51.116Z,96403.06
2023-04-24T03:12:20.185Z,96402.69
2023-04-24T03:14:48.226Z,96410.63
2023-04-24T03:17:16.325Z,96412.00
2023-04-24T03:19:45.067Z,96404.69
2023-04-24T03:22:14.736Z,96408.06
2023-04-24T03:24:43.209Z,96404.75
2023-04-24T03:27:10.986Z,96409.09
2023-04-24T03:29:39.301Z,96397.44
2023-04-24T03:32:07.214Z,96406.25
2023-04-24T03:34:35.946Z,96410.91
2023-04-24T03:37:04.466Z,96400.44
2023-04-24T03:39:33.689Z,96403.75
2023-04-24T03:42:02.268Z,96408.59
2023-04-24T03:44:30.462Z,96406.38
2023-04-24T03:47:00.332Z,96406.16
2023-04-24T03:49:28.941Z,96412.00
2023-04-24T03:51:56.809Z,96407.03
2023-04-24T03:54:24.780Z,96405.22
2023-04-24T03:56:56.073Z,96409.28
2023-04-24T03:59:24.963Z,96404.13
2023-04-24T04:01:53.668Z,96413.63
2023-04-24T04:04:22.431Z,96405.41
2023-04-24T04:06:50.730Z,96396.09
2023-04-24T04:09:19.615Z,96409.66
2023-04-24T04:11:48.496Z,96412.16
2023-04-24T04:14:17.866Z,96414.72
2023-04-24T04:16:45.851Z,96412.91
2023-04-24T04:19:15.965Z,96415.88
2023-04-24T04:21:43.860Z,96415.69
2023-04-24T04:24:11.849Z,96409.91
2023-04-24T04:26:40.676Z,96411.97
2023-04-24T04:29:08.939Z,96414.53
2023-04-24T04:31:38.519Z,96406.16
2023-04-24T04:34:07.358Z,96410.56
2023-04-24T04:36:37.836Z,96420.22
2023-04-24T04:39:06.762Z,96421.34
2023-04-24T04:41:36.792Z,96415.78
2023-04-24T04:44:05.848Z,96421.44
2023-04-24T04:46:35.396Z,96421.69
2023-04-24T04:49:05.517Z,96425.88
2023-04-24T04:51:33.475Z,96423.59
2023-04-24T04:54:02.457Z,96419.97
2023-04-24T04:56:30.846Z,96422.25
2023-04-24T04:59:00.048Z,96421.09
2023-04-24T05:01:29.060Z,96418.16
2023-04-24T05:03:57.875Z,96425.19
2023-04-24T05:06:27.280Z,96422.81
2023-04-24T05:08:58.643Z,96427.88
2023-04-24T05:11:27.259Z,96426.63
2023-04-24T05:13:55.516Z,96418.25
2023-04-24T05:16:24.641Z,96430.00
2023-04-24T05:18:53.278Z,96440.91
2023-04-24T05:21:22.426Z,96448.44
2023-04-24T05:23:52.076Z,96438.97
2023-04-24T05:26:20.541Z,96434.53
2023-04-24T05:28:49.343Z,96438.72
2023-04-24T05:31:18.961Z,96440.88
2023-04-24T05:33:47.258Z,96443.06
2023-04-24T05:36:16.418Z,96450.63
2023-04-24T05:38:44.664Z,96447.28
2023-04-24T05:41:14.389Z,96456.00
2023-04-24T05:43:43.337Z,96453.13
2023-04-24T05:46:11.559Z,96457.50
2023-04-24T05:48:40.155Z,96457.38
2023-04-24T05:51:09.111Z,96458.75
2023-04-24T05:53:37.785Z,96458.50
2023-04-24T05:56:06.368Z,96458.50
2023-04-24T05:58:37.100Z,96465.28
2023-04-24T06:01:09.682Z,96459.41
2023-04-24T06:03:39.682Z,96463.97
2023-04-24T06:06:09.400Z,96456.91
2023-04-24T06:08:38.505Z,96455.91
2023-04-24T06:11:06.772Z,96452.09
2023-04-24T06:13:37.093Z,96455.69
2023-04-24T06:16:06.297Z,96451.97
2023-04-24T06:18:34.873Z,96450.59
2023-04-24T06:21:03.070Z,96454.03
2023-04-24T06:23:33.958Z,96458.97
2023-04-24T06:26:02.694Z,96462.44
2023-04-24T06:28:30.716Z,96460.97
2023-04-24T06:31:01.265Z,96453.34
2023-04-24T06:33:29.824Z,96453.31
2023-04-24T06:35:58.719Z,96454.00
2023-04-24T06:38:26.824Z,96458.81
2023-04-24T06:40:55.540Z,96447.47
2023-04-24T06:43:26.176Z,96440.50
2023-04-24T06:45:54.355Z,96439.06
2023-04-24T06:48:24.022Z,96430.66
2023-04-24T06:50:53.185Z,96432.38
2023-04-24T06:53:21.728Z,96441.38
2023-04-24T06:55:50.285Z,96436.72
2023-04-24T06:58:19.271Z,96438.19
2023-04-24T07:00:47.958Z,96441.75
2023-04-24T07:03:16.242Z,96427.34
2023-04-24T07:05:47.857Z,96447.44
2023-04-24T07:08:18.123Z,96449.69
2023-04-24T07:10:46.912Z,96456.81
2023-04-24T07:13:15.328Z,96459.91
2023-04-24T07:15:44.140Z,96469.28
2023-04-24T07:18:13.013Z,96466.50
2023-04-24T07:20:41.493Z,96458.78
2023-04-24T07:23:11.072Z,96463.31
2023-04-24T07:25:40.502Z,96461.81
2023-04-24T07:28:09.278Z,96465.97
2023-04-24T07:30:37.500Z,96453.94
2023-04-24T07:33:06.283Z,96461.63
2023-04-24T07:35:36.215Z,96456.59
2023-04-24T07:38:04.587Z,96440.06
2023-04-24T07:40:34.461Z,96457.44
2023-04-24T07:43:06.176Z,96456.13
2023-04-24T07:45:37.331Z,96467.56
2023-04-24T07:48:06.627Z,96477.34
2023-04-24T07:50:35.888Z,96469.44
2023-04-24T07:53:04.645Z,96482.44
2023-04-24T07:55:35.406Z,96482.47
2023-04-24T07:58:04.387Z,96482.00
2023-04-24T08:00:32.817Z,96494.41
2023-04-24T08:03:02.425Z,96469.69
2023-04-24T08:05:31.394Z,96491.63
2023-04-24T08:07:59.508Z,96483.53
2023-04-24T08:10:28.336Z,96493.72
2023-04-24T08:12:58.116Z,96490.25
2023-04-24T08:15:26.897Z,96506.66
2023-04-24T08:17:57.222Z,96519.00
2023-04-24T08:20:27.555Z,96555.75
2023-04-24T08:22:56.757Z,96538.81
2023-04-24T08:25:26.565Z,96533.31
2023-04-24T08:27:55.824Z,96543.91
2023-04-24T08:30:27.032Z,96508.00
2023-04-24T08:32:56.136Z,96503.97
2023-04-24T08:35:24.782Z,96526.63
2023-04-24T08:37:56.235Z,96511.97
2023-04-24T08:40:32.014Z,96524.59
2023-04-24T08:43:01.921Z,96537.81
2023-04-24T08:45:31.719Z,96526.19
2023-04-24T08:48:00.652Z,96554.56
2023-04-24T08:50:32.482Z,96557.31
2023-04-24T08:53:03.430Z,96564.38
2023-04-24T08:55:36.116Z,96572.28
2023-04-24T08:58:05.615Z,96573.84
2023-04-24T09:00:48.215Z,96585.56
2023-04-24T09:03:18.536Z,96602.53
2023-04-24T09:05:51.348Z,96590.94
2023-04-24T09:08:21.906Z,96611.88
2023-04-24T09:10:51.276Z,96580.13
2023-04-24T09:13:21.978Z,96617.66
2023-04-24T09:15:52.229Z,96622.94
2023-04-24T09:18:22.585Z,96621.38
2023-04-24T09:21:01.290Z,96608.00
2023-04-24T09:23:31.040Z,96593.03
2023-04-24T09:26:01.109Z,96586.47
2023-04-24T09:28:32.830Z,96554.41
2023-04-24T09:31:10.937Z,96553.94
2023-04-24T09:33:39.777Z,96537.47
2023-04-24T09:36:08.502Z,96536.59
2023-04-24T09:38:37.731Z,96517.88
2023-04-24T09:41:08.817Z,96515.28
2023-04-24T09:43:37.849Z,96514.13
2023-04-24T09:46:11.639Z,96532.16
2023-04-24T09:48:40.146Z,96551.59
2023-04-24T09:51:12.220Z,96575.31
2023-04-24T09:53:41.487Z,96570.13
2023-04-24T09:56:14.103Z,96563.00
2023-04-24T09:58:42.250Z,96557.69
2023-04-24T10:01:11.725Z,96570.28
2023-04-24T10:03:40.265Z,96576.19
2023-04-24T10:06:11.161Z,96579.31
2023-04-24T10:08:40.169Z,96584.47
2023-04-24T10:11:12.516Z,96578.59
2023-04-24T10:13:42.729Z,96560.59
2023-04-24T10:16:14.309Z,96554.56
2023-04-24T10:18:43.301Z,96559.59
2023-04-24T10:21:12.296Z,96546.28
2023-04-24T10:23:42.842Z,96564.03
2023-04-24T10:26:13.193Z,96577.16
2023-04-24T10:28:43.981Z,96572.69
2023-04-24T10:31:15.067Z,96575.81
2023-04-24T10:33:45.387Z,96577.56
2023-04-24T10:36:16.091Z,96574.44
2023-04-24T10:38:50.320Z,96563.72
2023-04-24T10:41:24.505Z,96553.09
2023-04-24T10:44:07.758Z,96566.91
2023-04-24T10:46:39.504Z,96590.31
2023-04-24T10:49:10.133Z,96584.72
2023-04-24T10:51:49.841Z,96589.88
2023-04-24T10:54:32.182Z,96588.75
2023-04-24T10:57:30.427Z,96580.34
2023-04-24T11:00:21.153Z,96594.03
2023-04-24T11:02:54.014Z,96624.97
2023-04-24T11:05:24.799Z,96618.09
2023-04-24T11:08:15.605Z,96600.28
2023-04-24T11:10:47.444Z,96566.78
2023-04-24T11:13:18.555Z,96594.34
2023-04-24T11:15:47.713Z,96591.25
2023-04-24T11:18:18.024Z,96563.75
2023-04-24T11:20:47.114Z,96560.84
2023-04-24T11:23:16.192Z,96584.50
2023-04-24T11:25:44.891Z,96596.59
2023-04-24T11:28:18.965Z,96646.16
2023-04-24T11:30:47.191Z,96639.94
2023-04-24T11:33:24.148Z,96670.63
2023-04-24T11:36:00.336Z,96648.09
2023-04-24T11:38:35.878Z,96651.34
2023-04-24T11:41:06.809Z,96699.06
2023-04-24T11:43:36.675Z,96671.47
2023-04-24T11:46:06.456Z,96692.75
2023-04-24T11:48:41.681Z,96721.69
2023-04-24T11:51:09.941Z,96689.56
2023-04-24T11:53:39.863Z,96686.34
2023-04-24T11:56:08.814Z,96699.75
2023-04-24T11:58:37.732Z,96684.81
2023-04-24T12:01:06.995Z,96702.34
2023-04-24T12:03:35.822Z,96709.41
2023-04-24T12:06:13.090Z,96689.50
2023-04-24T12:08:42.163Z,96689.56
2023-04-24T12:11:10.820Z,96714.72
2023-04-24T12:13:39.057Z,96695.56
2023-04-24T12:16:07.917Z,96680.19
2023-04-24T12:18:36.246Z,96663.72
2023-04-24T12:21:31.920Z,96649.97
2023-04-24T12:24:00.518Z,96658.66
2023-04-24T12:26:30.138Z,96624.44
2023-04-24T12:29:04.033Z,96621.59
2023-04-24T12:31:33.315Z,96620.06
2023-04-24T12:34:01.474Z,96589.09
2023-04-24T12:36:31.328Z,96628.13
2023-04-24T12:38:59.695Z,96607.88
2023-04-24T12:41:28.456Z,96606.38
2023-04-24T12:43:57.494Z,96659.44
2023-04-24T12:46:25.742Z,96659.94
2023-04-24T12:48:54.220Z,96645.81
2023-04-24T12:51:23.024Z,96630.72
2023-04-24T12:53:55.414Z,96638.25
2023-04-24T12:56:25.286Z,96656.88
2023-04-24T12:58:53.520Z,96647.53
2023-04-24T13:01:22.184Z,96637.56
2023-04-24T13:03:51.073Z,96621.31
2023-04-24T13:06:19.304Z,96630.81
2023-04-24T13:08:48.342Z,96627.28
2023-04-24T13:11:18.332Z,96628.59
2023-04-24T13:13:46.534Z,96615.84
2023-04-24T13:16:14.546Z,96618.41
2023-04-24T13:18:43.063Z,96640.84
2023-04-24T13:21:11.188Z,96636.94
2023-04-24T13:23:39.542Z,96636.28
2023-04-24T13:26:08.657Z,96643.41
2023-04-24T13:28:39.388Z,96613.81
2023-04-24T13:31:08.616Z,96641.06
2023-04-24T13:33:37.110Z,96635.19
2023-04-24T13:36:05.440Z,96628.94
2023-04-24T13:38:34.040Z,96622.66
2023-04-24T13:41:03.020Z,96626.09
2023-04-24T13:43:31.148Z,96613.13
2023-04-24T13:46:03.479Z,96611.66
2023-04-24T13:48:34.641Z,96634.38
2023-04-24T13:51:03.814Z,96630.75
2023-04-24T13:53:32.031Z,96653.00
2023-04-24T13:56:00.291Z,96650.63
2023-04-24T13:58:29.110Z,96654.00
2023-04-24T14:00:57.783Z,96630.59
2023-04-24T14:03:27.483Z,96651.19
2023-04-24T14:05:56.324Z,96640.31
2023-04-24T14:08:24.850Z,96638.69
2023-04-24T14:10:53.087Z,96616.13
2023-04-24T14:13:22.384Z,96625.81
2023-04-24T14:15:50.508Z,96628.28
2023-04-24T14:18:18.765Z,96624.19
2023-04-24T14:20:48.760Z,96629.06
2023-04-24T14:23:18.511Z,96621.72
2023-04-24T14:25:47.040Z,96615.06
2023-04-24T14:28:15.728Z,96621.19
2023-04-24T14:30:44.413Z,96604.59
2023-04-24T14:33:22.096Z,96617.22
2023-04-24T14:35:53.138Z,96609.66
2023-04-24T14:38:24.168Z,96599.94
2023-04-24T14:43:30.652Z,96589.78
2023-04-24T14:46:00.891Z,96611.56
2023-04-24T14:48:37.377Z,96602.25
2023-04-24T14:51:09.612Z,96611.75
2023-04-24T14:57:26.258Z,96608.25
2023-04-24T14:59:56.466Z,96606.00
2023-04-24T15:02:25.305Z,96650.25
2023-04-24T15:04:54.673Z,96682.00
2023-04-24T15:07:27.199Z,96700.56
2023-04-24T15:09:56.202Z,96703.16
2023-04-24T15:12:24.252Z,96704.38
2023-04-24T15:14:52.514Z,96722.41
2023-04-24T15:17:21.390Z,96722.66
2023-04-24T15:19:49.735Z,96719.50
2023-04-24T15:22:18.169Z,96706.38
2023-04-24T15:24:48.024Z,96709.75
2023-04-24T15:27:16.165Z,96707.03
2023-04-24T15:29:44.459Z,96704.50
2023-04-24T15:32:13.601Z,96709.28
2023-04-24T15:34:41.787Z,96708.38
2023-04-24T15:37:10.083Z,96698.72
2023-04-24T15:39:39.762Z,96703.81
2023-04-24T15:42:09.823Z,96705.72
2023-04-24T15:44:38.953Z,96696.41
2023-04-24T15:47:07.305Z,96702.91
2023-04-24T15:49:36.054Z,96712.97
2023-04-24T15:52:04.835Z,96702.19
2023-04-24T15:54:33.693Z,96697.13
2023-04-24T15:57:02.061Z,96702.38
2023-04-24T15:59:33.727Z,96703.88
2023-04-24T16:02:02.601Z,96710.47
2023-04-24T16:04:30.986Z,96723.41
2023-04-24T16:07:00.207Z,96713.47
2023-04-24T16:09:28.601Z,96714.13
2023-04-24T16:11:56.851Z,96722.16
2023-04-24T16:14:26.254Z,96730.84
2023-04-24T16:16:56.697Z,96723.06
2023-04-24T16:19:25.144Z,96717.91
2023-04-24T16:21:55.929Z,96744.22
2023-04-24T16:24:24.774Z,96749.84
2023-04-24T16:26:54.713Z,96749.66
2023-04-24T16:29:23.017Z,96762.44
2023-04-24T16:31:52.272Z,96757.47
2023-04-24T16:34:22.421Z,96744.38
2023-04-24T16:36:51.228Z,96743.22
2023-04-24T16:39:19.640Z,96741.16
2023-04-24T16:41:49.772Z,96739.09
2023-04-24T16:44:19.729Z,96741.59
2023-04-24T16:46:48.225Z,96739.53
2023-04-24T16:49:16.360Z,96745.78
2023-04-24T16:51:46.502Z,96754.88
2023-04-24T16:54:14.677Z,96749.31
2023-04-24T16:56:42.959Z,96755.56
2023-04-24T16:59:11.661Z,96750.53
2023-04-24T17:01:39.902Z,96757.03
2023-04-24T17:04:08.161Z,96760.63
2023-04-24T17:06:37.159Z,96761.09
2023-04-24T17:09:06.502Z,96762.34
2023-04-24T17:11:34.914Z,96758.47
2023-04-24T17:14:03.613Z,96767.13
2023-04-24T17:16:31.559Z,96766.53
2023-04-24T17:18:59.770Z,96768.13
2023-04-24T17:21:28.511Z,96763.81
2023-04-24T17:23:56.535Z,96778.06
2023-04-24T17:26:25.935Z,96772.88
2023-04-24T17:28:55.810Z,96776.34
2023-04-24T17:31:24.079Z,96768.88
2023-04-24T17:33:52.540Z,96768.19
2023-04-24T17:36:21.243Z,96780.34
2023-04-24T17:38:49.932Z,96776.38
2023-04-24T17:41:18.657Z,96781.09
2023-04-24T17:43:48.466Z,96787.28
2023-04-24T17:46:16.610Z,96788.91
2023-04-24T17:48:46.180Z,96803.56
2023-04-24T17:51:15.996Z,96822.56
2023-04-24T17:53:44.794Z,96815.50
2023-04-24T17:56:13.213Z,96814.19
2023-04-24T17:58:42.064Z,96816.97
2023-04-24T18:01:11.886Z,96830.34
2023-04-24T18:03:40.141Z,96817.53
2023-04-24T18:06:10.985Z,96820.41
2023-04-24T18:08:39.280Z,96819.41
2023-04-24T18:11:07.728Z,96818.63
2023-04-24T18:13:35.894Z,96828.81
2023-04-24T18:16:04.306Z,96820.97
2023-04-24T18:18:34.259Z,96822.50
2023-04-24T18:21:03.301Z,96832.75
2023-04-24T18:23:31.648Z,96830.50
2023-04-24T18:26:00.065Z,96835.13
2023-04-24T18:28:31.375Z,96829.97
2023-04-24T18:31:00.756Z,96834.94
2023-04-24T18:33:28.759Z,96829.50
2023-04-24T18:35:58.456Z,96826.41
2023-04-24T18:38:27.569Z,96831.84
2023-04-24T18:40:55.746Z,96837.34
2023-04-24T18:43:23.708Z,96833.03
2023-04-24T18:45:52.424Z,96840.16
2023-04-24T18:48:20.536Z,96837.97
2023-04-24T18:50:48.664Z,96840.16
2023-04-24T18:53:18.854Z,96845.34
2023-04-24T18:55:46.971Z,96853.03
2023-04-24T18:58:15.068Z,96852.66
2023-04-24T19:00:43.945Z,96843.59
2023-04-24T19:03:12.301Z,96847.44
2023-04-24T19:05:40.692Z,96857.66
2023-04-24T19:08:09.267Z,96859.59
2023-04-24T19:10:38.646Z,96861.00
2023-04-24T19:13:06.947Z,96862.13
2023-04-24T19:15:35.643Z,96868.81
2023-04-24T19:18:04.044Z,96867.19
2023-04-24T19:20:32.132Z,96867.13
2023-04-24T19:23:00.585Z,96869.72
2023-04-24T19:25:28.785Z,96859.00
2023-04-24T19:27:58.235Z,96875.44
2023-04-24T19:30:26.649Z,96865.34
2023-04-24T19:32:55.088Z,96881.56
2023-04-24T19:35:23.489Z,96877.88
2023-04-24T19:37:52.088Z,96881.06
2023-04-24T19:40:20.915Z,96882.03
2023-04-24T19:42:49.653Z,96891.13
2023-04-24T19:45:19.476Z,96892.63
2023-04-24T19:47:47.930Z,96887.16
2023-04-24T19:50:16.963Z,96879.84
2023-04-24T19:52:45.802Z,96876.84
2023-04-24T19:55:14.353Z,96876.19
2023-04-24T19:57:42.532Z,96880.09
2023-04-24T20:00:12.360Z,96877.75
2023-04-24T20:02:42.641Z,96875.34
2023-04-24T20:05:11.792Z,96874.69
2023-04-24T20:07:40.564Z,96872.00
2023-04-24T20:10:09.760Z,96866.81
2023-04-24T20:12:37.836Z,96874.69
2023-04-24T20:15:07.094Z,96878.72
2023-04-24T20:17:35.242Z,96878.16
2023-04-24T20:20:05.025Z,96879.22
2023-04-24T20:22:39.232Z,96872.69
2023-04-24T20:25:08.821Z,96873.63
2023-04-24T20:27:37.580Z,96865.84
2023-04-24T20:30:06.966Z,96871.41
2023-04-24T20:32:35.831Z,96871.47
2023-04-24T20:35:05.856Z,96873.56
2023-04-24T20:37:34.794Z,96881.66
2023-04-24T20:40:05.579Z,96877.31
2023-04-24T20:42:33.701Z,96880.00
2023-04-24T20:45:02.932Z,96877.25
2023-04-24T20:47:31.625Z,96867.25
2023-04-24T20:50:02.406Z,96875.69
2023-04-24T20:52:31.816Z,96866.97
2023-04-24T20:54:59.946Z,96874.50
2023-04-24T20:57:28.505Z,96873.31
2023-04-24T20:59:56.832Z,96870.19
2023-04-24T21:02:25.066Z,96873.81
2023-04-24T21:04:53.809Z,96864.31
2023-04-24T21:07:21.968Z,96870.69
2023-04-24T21:09:51.777Z,96855.88
2023-04-24T21:12:20.378Z,96863.22
2023-04-24T21:14:50.939Z,96867.31
2023-04-24T21:17:19.295Z,96868.47
2023-04-24T21:19:48.687Z,96856.69
2023-04-24T21:22:16.811Z,96869.28
2023-04-24T21:24:44.868Z,96864.97
2023-04-24T21:27:15.110Z,96860.81
2023-04-24T21:29:43.576Z,96861.31
2023-04-24T21:32:11.810Z,96852.53
2023-04-24T21:34:40.144Z,96854.31
2023-04-24T21:37:08.131Z,96843.59
2023-04-24T21:39:36.319Z,96842.63
2023-04-24T21:42:05.130Z,96837.19
2023-04-24T21:44:34.703Z,96842.03
2023-04-24T21:47:02.708Z,96836.63
2023-04-24T21:49:31.141Z,96839.16
2023-04-24T21:51:59.022Z,96843.16
2023-04-24T21:54:27.088Z,96841.25
2023-04-24T21:56:55.592Z,96845.88
2023-04-24T21:59:24.747Z,96837.88
2023-04-24T22:01:54.107Z,96847.50
2023-04-24T22:04:23.456Z,96842.06
2023-04-24T22:06:53.369Z,96841.78
2023-04-24T22:09:21.614Z,96846.25
2023-04-24T22:11:50.926Z,96839.78
2023-04-24T22:14:19.183Z,96836.47
2023-04-24T22:16:47.849Z,96837.69
2023-04-24T22:19:18.169Z,96833.53
2023-04-24T22:21:46.804Z,96831.97
2023-04-24T22:24:15.210Z,96824.94
2023-04-24T22:26:44.396Z,96815.78
2023-04-24T22:29:12.994Z,96820.16
2023-04-24T22:31:42.029Z,96817.13
2023-04-24T22:34:10.286Z,96820.28
2023-04-24T22:36:39.862Z,96821.84
2023-04-24T22:39:08.869Z,96818.84
2023-04-24T22:41:36.972Z,96816.59
2023-04-24T22:44:05.315Z,96806.13
2023-04-24T22:46:33.999Z,96815.56
2023-04-24T22:49:02.708Z,96813.13
2023-04-24T22:51:34.187Z,96813.34
2023-04-24T22:54:06.020Z,96810.00
2023-04-24T22:56:36.399Z,96815.31
2023-04-24T22:59:05.097Z,96806.66
2023-04-24T23:01:33.284Z,96809.72
2023-04-24T23:04:01.832Z,96806.53
2023-04-24T23:06:30.911Z,96808.91
2023-04-24T23:08:59.562Z,96814.03
2023-04-24T23:11:29.723Z,96814.50
2023-04-24T23:13:58.018Z,96807.81
2023-04-24T23:16:26.363Z,96815.28
2023-04-24T23:18:55.390Z,96800.81
2023-04-24T23:21:23.853Z,96808.63
2023-04-24T23:23:52.853Z,96810.19
2023-04-24T23:26:21.614Z,96802.72
2023-04-24T23:28:51.219Z,96797.28
2023-04-24T23:31:19.350Z,96806.38
2023-04-24T23:33:48.246Z,96790.78
2023-04-24T23:36:17.140Z,96796.81
2023-04-24T23:38:50.047Z,96781.06
2023-04-24T23:41:18.939Z,96788.69
2023-04-24T23:43:47.611Z,96790.28
2023-04-24T23:46:17.274Z,96793.47
2023-04-24T23:48:45.213Z,96786.47
2023-04-24T23:51:13.754Z,96788.69
2023-04-24T23:53:42.047Z,96785.81
2023-04-24T23:56:10.395Z,96788.69
2023-04-24T23:58:39.203Z,96781.06
